createdAt,value
2023-05-12T00:01:56.642Z,20.53
2023-05-12T00:04:25.108Z,22.30
2023-05-12T00:06:54.864Z,21.60
2023-05-12T00:09:23.271Z,21.63
2023-05-12T00:11:51.829Z,20.83
2023-05-12T00:14:21.146Z,22.30
2023-05-12T00:16:52.169Z,22.43
2023-05-12T00:19:21.284Z,20.50
2023-05-12T00:21:50.224Z,21.00
2023-05-12T00:24:20.298Z,21.17
2023-05-12T00:26:49.234Z,21.20
2023-05-12T00:29:17.669Z,21.63
2023-05-12T00:31:46.159Z,20.07
2023-05-12T00:34:14.731Z,21.13
2023-05-12T00:36:43.113Z,21.70
2023-05-12T00:39:11.850Z,21.93
2023-05-12T00:41:41.822Z,24.07
2023-05-12T00:44:10.220Z,21.93
2023-05-12T00:46:39.261Z,23.37
2023-05-12T00:49:08.532Z,23.17
2023-05-12T00:51:37.271Z,25.23
2023-05-12T00:54:05.681Z,23.57
2023-05-12T00:56:35.423Z,22.60
2023-05-12T00:59:06.214Z,22.73
2023-05-12T01:01:36.317Z,21.37
2023-05-12T01:04:05.275Z,22.57
2023-05-12T01:06:39.865Z,23.73
2023-05-12T01:09:10.064Z,23.60
2023-05-12T01:11:39.032Z,22.83
2023-05-12T01:14:09.470Z,22.67
2023-05-12T01:16:51.468Z,20.97
2023-05-12T01:19:34.081Z,19.27
2023-05-12T01:22:02.838Z,19.80
2023-05-12T01:24:34.030Z,18.13
2023-05-12T01:27:05.824Z,16.60
2023-05-12T01:29:34.740Z,16.07
2023-05-12T01:32:04.154Z,14.00
2023-05-12T01:34:35.086Z,13.20
2023-05-12T01:37:03.568Z,13.17
2023-05-12T01:39:32.296Z,14.60
2023-05-12T01:42:01.288Z,13.97
2023-05-12T01:44:31.489Z,12.77
2023-05-12T01:47:01.700Z,13.47
2023-05-12T01:49:31.815Z,13.33
2023-05-12T01:52:00.627Z,12.37
2023-05-12T01:54:31.715Z,12.23
2023-05-12T01:57:00.158Z,13.13
2023-05-12T01:59:31.828Z,12.90
2023-05-12T02:02:01.183Z,10.97
2023-05-12T02:04:32.436Z,10.23
2023-05-12T02:07:01.949Z,10.03
2023-05-12T02:09:31.219Z,10.30
2023-05-12T02:12:04.361Z,9.43
2023-05-12T02:14:34.200Z,9.37
2023-05-12T02:17:03.334Z,9.10
2023-05-12T02:19:31.847Z,9.00
2023-05-12T02:22:00.942Z,8.43
2023-05-12T02:24:29.268Z,8.97
2023-05-12T02:26:57.867Z,8.70
2023-05-12T02:29:26.313Z,9.17
2023-05-12T02:31:56.532Z,10.27
2023-05-12T02:34:25.033Z,9.93
2023-05-12T02:36:53.389Z,11.20
2023-05-12T02:39:21.922Z,12.00
2023-05-12T02:41:50.399Z,11.37
2023-05-12T02:44:20.814Z,12.60
2023-05-12T02:46:49.455Z,12.43
2023-05-12T02:49:19.176Z,11.63
2023-05-12T02:51:48.659Z,12.47
2023-05-12T02:54:17.067Z,13.53
2023-05-12T02:56:45.499Z,13.10
2023-05-12T02:59:14.257Z,13.60
2023-05-12T03:01:43.019Z,14.50
2023-05-12T03:04:11.468Z,14.57
2023-05-12T03:06:41.202Z,15.27
2023-05-12T03:09:10.185Z,14.33
2023-05-12T03:11:38.559Z,15.87
2023-05-12T03:14:06.939Z,16.20
2023-05-12T03:16:35.381Z,18.70
2023-05-12T03:19:05.499Z,20.00
2023-05-12T03:21:33.966Z,21.53
2023-05-12T03:24:03.799Z,23.00
2023-05-12T03:26:32.536Z,25.13
2023-05-12T03:29:00.884Z,25.30
2023-05-12T03:31:29.370Z,27.00
2023-05-12T03:33:57.791Z,31.20
2023-05-12T03:36:26.360Z,32.10
2023-05-12T03:38:54.767Z,34.50
2023-05-12T03:41:24.590Z,34.23
2023-05-12T03:43:53.191Z,34.73
2023-05-12T03:46:23.097Z,37.13
2023-05-12T03:48:51.504Z,38.23
2023-05-12T03:51:20.158Z,40.53
2023-05-12T03:53:48.591Z,41.27
2023-05-12T03:56:17.132Z,41.73
2023-05-12T03:58:47.412Z,42.20
2023-05-12T04:01:17.606Z,43.27
2023-05-12T04:03:46.322Z,42.83
2023-05-12T04:06:14.887Z,43.80
2023-05-12T04:08:43.860Z,44.33
2023-05-12T04:11:12.175Z,43.30
2023-05-12T04:13:40.627Z,45.23
2023-05-12T04:16:10.880Z,45.40
2023-05-12T04:18:39.236Z,43.70
2023-05-12T04:21:09.608Z,38.90
2023-05-12T04:23:37.910Z,35.03
2023-05-12T04:26:06.665Z,35.23
2023-05-12T04:28:37.050Z,31.50
2023-05-12T04:31:05.806Z,30.27
2023-05-12T04:33:36.729Z,30.00
2023-05-12T04:36:06.624Z,28.83
2023-05-12T04:38:35.202Z,28.97
2023-05-12T04:41:03.897Z,25.67
2023-05-12T04:46:04.198Z,26.93
2023-05-12T04:48:32.594Z,26.80
2023-05-12T04:51:03.120Z,26.80
2023-05-12T04:53:34.742Z,27.27
2023-05-12T04:56:03.479Z,26.70
2023-05-12T04:58:37.013Z,26.60
2023-05-12T05:01:05.902Z,23.37
2023-05-12T05:03:35.070Z,24.17
2023-05-12T05:06:05.306Z,24.97
2023-05-12T05:08:34.221Z,24.67
2023-05-12T05:11:02.796Z,25.27
2023-05-12T05:13:32.440Z,25.07
2023-05-12T05:16:00.948Z,23.87
2023-05-12T05:18:30.309Z,22.10
2023-05-12T05:20:59.353Z,21.93
2023-05-12T05:23:29.749Z,22.07
2023-05-12T05:25:58.201Z,22.60
2023-05-12T05:28:26.975Z,24.80
2023-05-12T05:30:55.600Z,24.73
2023-05-12T05:33:24.541Z,24.93
2023-05-12T05:35:53.117Z,26.97
2023-05-12T05:38:21.801Z,24.80
2023-05-12T05:40:54.216Z,24.53
2023-05-12T05:43:24.429Z,22.20
2023-05-12T05:45:53.830Z,20.17
2023-05-12T05:48:23.207Z,18.80
2023-05-12T05:50:53.155Z,17.50
2023-05-12T05:53:23.672Z,16.13
2023-05-12T05:55:54.615Z,14.33
2023-05-12T05:58:24.648Z,14.47
2023-05-12T06:00:53.041Z,12.40
2023-05-12T06:03:22.024Z,11.27
2023-05-12T06:05:51.016Z,11.17
2023-05-12T06:08:20.425Z,9.40
2023-05-12T06:10:50.557Z,8.87
2023-05-12T06:13:25.756Z,8.67
2023-05-12T06:15:56.916Z,7.63
2023-05-12T06:18:26.366Z,7.47
2023-05-12T06:20:56.970Z,7.97
2023-05-12T06:23:27.220Z,7.27
2023-05-12T06:25:56.726Z,7.47
2023-05-12T06:28:27.810Z,7.40
2023-05-12T06:30:57.223Z,7.57
2023-05-12T06:33:26.628Z,7.37
2023-05-12T06:35:55.667Z,7.07
2023-05-12T06:38:24.460Z,8.13
2023-05-12T06:40:53.295Z,7.27
2023-05-12T06:43:22.051Z,6.53
2023-05-12T06:45:57.057Z,6.80
2023-05-12T06:48:25.659Z,6.80
2023-05-12T06:50:57.871Z,6.53
2023-05-12T06:53:31.306Z,6.10
2023-05-12T06:55:59.918Z,6.37
2023-05-12T06:58:28.658Z,7.03
2023-05-12T07:00:59.213Z,6.10
2023-05-12T07:03:27.918Z,6.23
2023-05-12T07:05:56.773Z,6.10
2023-05-12T07:08:25.804Z,6.00
2023-05-12T07:10:54.678Z,6.70
2023-05-12T07:13:23.831Z,5.47
2023-05-12T07:15:52.511Z,5.57
2023-05-12T07:18:22.795Z,6.03
2023-05-12T07:20:51.566Z,5.67
2023-05-12T07:23:20.207Z,5.13
2023-05-12T07:25:49.186Z,5.13
2023-05-12T07:28:17.885Z,4.97
2023-05-12T07:30:47.266Z,5.70
2023-05-12T07:33:16.588Z,4.77
2023-05-12T07:35:47.611Z,4.80
2023-05-12T07:38:16.164Z,4.33
2023-05-12T07:40:44.789Z,4.47
2023-05-12T07:43:13.849Z,4.33
2023-05-12T07:45:42.320Z,4.40
2023-05-12T07:48:11.601Z,4.70
2023-05-12T07:50:40.499Z,4.53
2023-05-12T07:53:10.539Z,4.60
2023-05-12T07:55:39.151Z,5.07
2023-05-12T07:58:07.770Z,4.60
2023-05-12T08:00:36.399Z,4.07
2023-05-12T08:03:05.891Z,4.40
2023-05-12T08:05:34.591Z,4.17
2023-05-12T08:08:03.143Z,3.50
2023-05-12T08:10:33.225Z,3.40
2023-05-12T08:13:01.706Z,4.07
2023-05-12T08:15:30.176Z,4.50
2023-05-12T08:17:58.812Z,3.97
2023-05-12T08:20:27.412Z,3.53
2023-05-12T08:22:56.009Z,3.90
2023-05-12T08:25:24.898Z,4.53
2023-05-12T08:27:55.012Z,4.10
2023-05-12T08:30:23.638Z,3.50
2023-05-12T08:32:52.529Z,3.47
2023-05-12T08:35:21.527Z,3.33
2023-05-12T08:37:50.333Z,3.37
2023-05-12T08:40:23.175Z,3.47
2023-05-12T08:43:02.030Z,3.63
2023-05-12T08:45:31.259Z,2.90
2023-05-12T08:48:01.737Z,3.10
2023-05-12T08:50:32.254Z,3.30
2023-05-12T08:53:01.422Z,3.20
2023-05-12T08:55:32.950Z,3.50
2023-05-12T08:58:04.863Z,2.97
2023-05-12T09:00:36.177Z,3.50
2023-05-12T09:03:07.162Z,3.50
2023-05-12T09:05:37.254Z,3.33
2023-05-12T09:08:06.857Z,3.17
2023-05-12T09:10:35.845Z,4.40
2023-05-12T09:13:14.837Z,3.40
2023-05-12T09:15:46.293Z,3.77
2023-05-12T09:18:14.971Z,3.87
2023-05-12T09:20:43.832Z,3.57
2023-05-12T09:23:16.853Z,3.70
2023-05-12T09:25:47.129Z,2.97
2023-05-12T09:28:17.132Z,3.77
2023-05-12T09:30:45.732Z,3.43
2023-05-12T09:33:15.217Z,3.53
2023-05-12T09:35:45.305Z,3.47
2023-05-12T09:38:15.431Z,2.90
2023-05-12T09:40:44.418Z,3.17
2023-05-12T09:43:15.285Z,3.03
2023-05-12T09:45:47.718Z,3.10
2023-05-12T09:48:16.394Z,3.53
2023-05-12T09:50:48.880Z,3.73
2023-05-12T09:53:19.240Z,3.70
2023-05-12T09:55:49.074Z,3.17
2023-05-12T09:58:19.200Z,2.67
2023-05-12T10:03:25.435Z,3.00
2023-05-12T10:05:57.880Z,3.10
2023-05-12T10:08:33.757Z,2.87
2023-05-12T10:11:03.622Z,3.30
2023-05-12T10:13:33.255Z,2.77
2023-05-12T10:16:04.198Z,2.60
2023-05-12T10:18:34.620Z,2.90
2023-05-12T10:21:04.029Z,2.83
2023-05-12T10:23:34.052Z,3.17
2023-05-12T10:26:05.263Z,2.60
2023-05-12T10:28:34.062Z,3.10
2023-05-12T10:31:06.653Z,2.97
2023-05-12T10:33:35.134Z,3.30
2023-05-12T10:36:04.122Z,3.20
2023-05-12T10:38:38.342Z,2.47
2023-05-12T10:41:08.006Z,3.10
2023-05-12T10:43:41.627Z,2.83
2023-05-12T10:46:17.803Z,3.00
2023-05-12T10:48:57.296Z,3.80
2023-05-12T10:51:28.523Z,3.27
2023-05-12T10:54:02.356Z,3.40
2023-05-12T10:56:32.791Z,3.43
2023-05-12T10:59:14.778Z,3.10
2023-05-12T11:01:58.324Z,3.00
2023-05-12T11:04:40.902Z,3.63
2023-05-12T11:07:12.144Z,3.87
2023-05-12T11:09:50.719Z,3.70
2023-05-12T11:12:26.643Z,3.40
2023-05-12T11:14:55.422Z,3.40
2023-05-12T11:17:26.636Z,4.13
2023-05-12T11:19:56.503Z,3.73
2023-05-12T11:22:25.999Z,3.63
2023-05-12T11:24:54.896Z,4.33
2023-05-12T11:27:24.662Z,3.67
2023-05-12T11:30:02.903Z,3.80
2023-05-12T11:32:35.147Z,4.23
2023-05-12T11:35:14.961Z,3.87
2023-05-12T11:37:44.968Z,4.40
2023-05-12T11:40:15.834Z,3.70
2023-05-12T11:42:48.582Z,3.47
2023-05-12T11:45:28.865Z,3.27
2023-05-12T11:48:09.552Z,3.43
2023-05-12T11:50:40.366Z,3.70
2023-05-12T11:53:14.674Z,3.33
2023-05-12T11:55:50.470Z,3.57
2023-05-12T11:58:24.555Z,3.40
2023-05-12T12:00:53.621Z,4.17
2023-05-12T12:03:23.836Z,3.23
2023-05-12T12:06:00.250Z,3.20
2023-05-12T12:08:28.893Z,3.63
2023-05-12T12:11:00.028Z,3.63
2023-05-12T12:13:30.630Z,5.13
2023-05-12T12:15:59.139Z,3.73
2023-05-12T12:18:29.253Z,2.97
2023-05-12T12:20:57.805Z,3.57
2023-05-12T12:23:26.427Z,3.63
2023-05-12T12:25:55.033Z,2.90
2023-05-12T12:28:23.621Z,3.60
2023-05-12T12:30:52.154Z,3.00
2023-05-12T12:33:20.862Z,2.50
2023-05-12T12:35:50.884Z,3.00
2023-05-12T12:38:19.340Z,3.13
2023-05-12T12:40:47.898Z,2.93
2023-05-12T12:43:16.457Z,3.10
2023-05-12T12:45:46.232Z,3.43
2023-05-12T12:48:14.881Z,3.57
2023-05-12T12:50:43.460Z,3.37
2023-05-12T12:53:13.804Z,2.90
2023-05-12T12:55:42.265Z,2.77
2023-05-12T12:58:10.723Z,3.20
2023-05-12T13:00:39.321Z,2.90
2023-05-12T13:03:08.550Z,3.90
2023-05-12T13:05:37.088Z,3.70
2023-05-12T13:08:06.163Z,3.43
2023-05-12T13:10:36.422Z,3.87
2023-05-12T13:13:05.085Z,3.50
2023-05-12T13:15:33.567Z,3.60
2023-05-12T13:18:02.037Z,3.30
2023-05-12T13:20:30.749Z,2.90
2023-05-12T13:22:59.281Z,3.33
2023-05-12T13:25:27.854Z,3.10
2023-05-12T13:27:59.045Z,3.77
2023-05-12T13:30:28.115Z,3.93
2023-05-12T13:32:56.809Z,3.20
2023-05-12T13:35:25.391Z,3.70
2023-05-12T13:37:54.609Z,3.30
2023-05-12T13:40:23.134Z,3.67
2023-05-12T13:42:51.568Z,3.77
2023-05-12T13:45:21.787Z,3.50
2023-05-12T13:47:50.369Z,3.40
2023-05-12T13:50:18.877Z,3.10
2023-05-12T13:52:48.409Z,3.20
2023-05-12T13:55:21.228Z,3.90
2023-05-12T13:57:50.532Z,3.60
2023-05-12T14:00:22.480Z,3.83
2023-05-12T14:02:52.492Z,3.57
2023-05-12T14:05:21.658Z,3.50
2023-05-12T14:07:50.656Z,3.50
2023-05-12T14:10:19.174Z,3.50
2023-05-12T14:12:48.120Z,3.20
2023-05-12T14:17:48.749Z,3.80
2023-05-12T14:20:18.789Z,3.50
2023-05-12T14:22:47.632Z,3.43
2023-05-12T14:25:16.907Z,3.50
2023-05-12T14:27:45.868Z,3.33
2023-05-12T14:30:15.422Z,3.30
2023-05-12T14:32:44.083Z,3.50
2023-05-12T14:35:13.281Z,3.13
2023-05-12T14:37:43.502Z,3.30
2023-05-12T14:40:13.702Z,3.40
2023-05-12T14:42:42.430Z,3.10
2023-05-12T14:45:11.690Z,3.37
2023-05-12T14:47:40.257Z,3.67
2023-05-12T14:50:09.368Z,4.00
2023-05-12T14:52:39.560Z,3.40
2023-05-12T14:55:13.677Z,3.23
2023-05-12T14:57:43.138Z,4.03
2023-05-12T15:00:13.912Z,3.20
2023-05-12T15:02:44.100Z,3.47
2023-05-12T15:05:15.369Z,3.43
2023-05-12T15:07:43.955Z,3.00
2023-05-12T15:10:14.157Z,2.97
2023-05-12T15:12:42.617Z,3.40
2023-05-12T15:15:12.207Z,3.43
2023-05-12T15:17:40.864Z,3.40
2023-05-12T15:20:11.047Z,3.37
2023-05-12T15:22:39.552Z,3.17
2023-05-12T15:25:09.562Z,3.43
2023-05-12T15:27:39.602Z,3.50
2023-05-12T15:30:09.526Z,3.27
2023-05-12T15:32:41.294Z,3.17
2023-05-12T15:35:10.594Z,4.50
2023-05-12T15:37:39.152Z,2.67
2023-05-12T15:40:09.134Z,2.63
2023-05-12T15:42:37.737Z,2.90
2023-05-12T15:45:09.614Z,2.80
2023-05-12T15:47:38.228Z,2.83
2023-05-12T15:50:08.071Z,3.10
2023-05-12T15:52:36.662Z,3.60
2023-05-12T15:55:05.562Z,3.33
2023-05-12T15:57:34.079Z,3.97
2023-05-12T16:00:02.936Z,3.93
2023-05-12T16:02:42.831Z,3.80
2023-05-12T16:05:12.572Z,3.57
2023-05-12T16:07:41.017Z,3.87
2023-05-12T16:10:10.414Z,3.80
2023-05-12T16:12:39.378Z,3.90
2023-05-12T16:15:09.493Z,3.87
2023-05-12T16:17:38.314Z,3.53
2023-05-12T16:20:10.531Z,4.23
2023-05-12T16:22:39.770Z,3.70
2023-05-12T16:25:09.578Z,3.40
2023-05-12T16:27:39.127Z,3.93
2023-05-12T16:30:08.986Z,3.63
2023-05-12T16:32:37.831Z,3.70
2023-05-12T16:35:08.894Z,3.27
2023-05-12T16:37:37.646Z,4.13
2023-05-12T16:40:07.314Z,4.27
2023-05-12T16:42:36.647Z,4.07
2023-05-12T16:45:06.483Z,4.00
2023-05-12T16:47:35.569Z,3.53
2023-05-12T16:50:04.355Z,3.87
2023-05-12T16:52:35.052Z,3.37
2023-05-12T16:55:04.218Z,3.80
2023-05-12T16:57:33.038Z,3.80
2023-05-12T17:00:05.177Z,3.83
2023-05-12T17:02:34.954Z,4.07
2023-05-12T17:05:03.996Z,4.17
2023-05-12T17:07:35.409Z,3.97
2023-05-12T17:10:04.450Z,4.37
2023-05-12T17:12:33.481Z,4.20
2023-05-12T17:15:07.563Z,4.10
2023-05-12T17:17:37.799Z,4.07
2023-05-12T17:20:08.280Z,3.10
2023-05-12T17:22:42.826Z,3.10
2023-05-12T17:25:12.824Z,3.10
2023-05-12T17:27:41.764Z,2.80
2023-05-12T17:30:11.720Z,2.80
2023-05-12T17:32:41.507Z,3.43
2023-05-12T17:35:11.809Z,3.03
2023-05-12T17:37:41.876Z,2.90
2023-05-12T17:40:16.778Z,3.93
2023-05-12T17:42:45.622Z,3.77
2023-05-12T17:45:15.142Z,3.47
2023-05-12T17:47:43.945Z,3.87
2023-05-12T17:50:15.097Z,3.97
2023-05-12T17:52:45.375Z,4.30
2023-05-12T17:55:13.966Z,3.27
2023-05-12T17:57:42.514Z,3.70
2023-05-12T18:00:12.295Z,3.50
2023-05-12T18:02:43.998Z,3.83
2023-05-12T18:05:12.604Z,3.60
2023-05-12T18:07:41.352Z,3.73
2023-05-12T18:10:12.324Z,3.77
2023-05-12T18:12:41.016Z,3.97
2023-05-12T18:15:10.752Z,3.73
2023-05-12T18:17:39.327Z,3.90
2023-05-12T18:20:09.831Z,3.23
2023-05-12T18:22:38.378Z,3.60
2023-05-12T18:25:09.869Z,3.63
2023-05-12T18:27:39.839Z,3.47
2023-05-12T18:30:09.455Z,3.60
2023-05-12T18:32:38.198Z,3.80
2023-05-12T18:35:08.494Z,3.50
2023-05-12T18:37:36.984Z,3.93
2023-05-12T18:40:07.006Z,3.87
2023-05-12T18:42:36.150Z,3.73
2023-05-12T18:45:07.337Z,4.00
2023-05-12T18:47:35.743Z,3.87
2023-05-12T18:50:04.644Z,3.97
2023-05-12T18:52:33.221Z,4.00
2023-05-12T18:55:01.984Z,4.40
2023-05-12T18:57:30.860Z,3.63
2023-05-12T18:59:59.349Z,4.07
2023-05-12T19:02:29.229Z,4.17
2023-05-12T19:04:57.890Z,4.10
2023-05-12T19:07:26.453Z,3.97
2023-05-12T19:09:55.077Z,3.17
2023-05-12T19:12:23.879Z,4.00
2023-05-12T19:14:52.768Z,3.83
2023-05-12T19:17:22.229Z,3.90
2023-05-12T19:19:52.244Z,4.57
2023-05-12T19:22:20.897Z,4.53
2023-05-12T19:24:49.475Z,4.50
2023-05-12T19:27:18.275Z,4.73
2023-05-12T19:29:46.825Z,5.07
2023-05-12T19:32:16.311Z,4.70
2023-05-12T19:34:46.377Z,4.43
2023-05-12T19:37:16.762Z,5.60
2023-05-12T19:39:45.480Z,4.50
2023-05-12T19:42:14.276Z,4.43
2023-05-12T19:44:42.881Z,5.07
2023-05-12T19:47:12.686Z,4.83
2023-05-12T19:49:41.799Z,5.40
2023-05-12T19:52:11.011Z,5.37
2023-05-12T19:54:41.123Z,4.70
2023-05-12T19:57:09.883Z,5.23
2023-05-12T19:59:38.449Z,4.50
2023-05-12T20:02:07.181Z,4.90
2023-05-12T20:04:35.825Z,4.60
2023-05-12T20:07:04.921Z,5.80
2023-05-12T20:09:33.980Z,5.57
2023-05-12T20:12:07.903Z,5.17
2023-05-12T20:14:38.545Z,5.20
2023-05-12T20:17:07.803Z,5.63
2023-05-12T20:19:37.074Z,6.07
2023-05-12T20:22:06.418Z,5.63
2023-05-12T20:24:35.395Z,6.07
2023-05-12T20:27:05.598Z,6.00
2023-05-12T20:29:34.548Z,5.87
2023-05-12T20:32:03.161Z,6.63
2023-05-12T20:34:32.102Z,6.97
2023-05-12T20:37:01.205Z,6.50
2023-05-12T20:39:29.814Z,6.73
2023-05-12T20:41:58.611Z,6.47
2023-05-12T20:44:28.889Z,6.53
2023-05-12T20:46:57.540Z,6.00
2023-05-12T20:49:26.344Z,6.77
2023-05-12T20:51:55.131Z,6.50
2023-05-12T20:54:23.920Z,7.13
2023-05-12T20:56:52.476Z,7.20
2023-05-12T20:59:21.134Z,8.37
2023-05-12T21:01:50.974Z,8.53
2023-05-12T21:04:19.922Z,9.07
2023-05-12T21:06:48.579Z,9.03
2023-05-12T21:09:17.249Z,9.13
2023-05-12T21:11:45.953Z,8.47
2023-05-12T21:14:14.478Z,8.10
2023-05-12T21:16:43.256Z,8.87
2023-05-12T21:19:13.184Z,7.90
2023-05-12T21:21:41.861Z,8.40
2023-05-12T21:24:10.563Z,7.87
2023-05-12T21:26:39.267Z,8.50
2023-05-12T21:29:07.972Z,9.23
2023-05-12T21:31:36.575Z,9.20
2023-05-12T21:34:07.539Z,9.50
2023-05-12T21:36:37.541Z,7.60
2023-05-12T21:39:06.367Z,9.60
2023-05-12T21:41:35.126Z,8.47
2023-05-12T21:44:04.007Z,7.37
2023-05-12T21:46:32.973Z,8.70
2023-05-12T21:49:01.774Z,8.67
2023-05-12T21:51:30.392Z,8.13
2023-05-12T21:54:00.809Z,8.73
2023-05-12T21:56:29.304Z,9.40
2023-05-12T21:58:57.837Z,9.13
2023-05-12T22:01:26.387Z,7.03
2023-05-12T22:03:55.130Z,7.20
2023-05-12T22:06:23.865Z,8.97
2023-05-12T22:08:52.469Z,9.17
2023-05-12T22:11:23.515Z,9.10
2023-05-12T22:13:52.385Z,7.90
2023-05-12T22:16:25.733Z,8.93
2023-05-12T22:18:57.277Z,9.30
2023-05-12T22:21:25.980Z,9.50
2023-05-12T22:23:54.774Z,7.80
2023-05-12T22:26:24.928Z,8.80
2023-05-12T22:28:53.370Z,8.17
2023-05-12T22:31:22.096Z,8.97
2023-05-12T22:33:50.550Z,9.00
2023-05-12T22:36:19.079Z,9.70
2023-05-12T22:38:47.622Z,7.80
2023-05-12T22:41:16.305Z,7.30
2023-05-12T22:43:46.310Z,7.33
2023-05-12T22:46:14.816Z,10.37
2023-05-12T22:48:44.144Z,10.23
2023-05-12T22:51:12.677Z,10.23
2023-05-12T22:53:41.893Z,9.77
2023-05-12T22:56:10.686Z,11.43
2023-05-12T22:58:39.256Z,11.50
2023-05-12T23:01:09.227Z,13.63
2023-05-12T23:03:37.858Z,11.63
2023-05-12T23:06:06.910Z,11.10
2023-05-12T23:08:35.409Z,11.33
2023-05-12T23:11:03.946Z,12.33
2023-05-12T23:13:32.422Z,12.70
2023-05-12T23:16:00.984Z,12.80
2023-05-12T23:18:32.143Z,12.73
2023-05-12T23:21:00.648Z,10.10
2023-05-12T23:23:29.090Z,10.57
2023-05-12T23:25:57.640Z,13.67
2023-05-12T23:28:26.372Z,14.27
2023-05-12T23:30:55.585Z,14.20
2023-05-12T23:33:24.465Z,16.50
2023-05-12T23:35:54.695Z,15.53
2023-05-12T23:38:23.472Z,14.33
2023-05-12T23:40:51.848Z,13.30
2023-05-12T23:43:20.299Z,13.37
2023-05-12T23:45:48.987Z,14.13
2023-05-12T23:48:17.783Z,14.00
2023-05-12T23:50:46.192Z,15.40
2023-05-12T23:53:16.020Z,15.13
2023-05-12T23:55:44.490Z,14.93
2023-05-12T23:58:12.981Z,13.70
